Date,TemperatureHighF,TemperatureAvgF,TemperatureLowF,DewpointHighF,DewpointAvgF,DewpointLowF,HumidityHigh,HumidityAvg,HumidityLow,PressureMaxIn,PressureMinIn,WindSpeedMaxMPH,WindSpeedAvgMPH,GustSpeedMaxMPH,PrecipitationSumIn
2013-1-1,24.4,16.5,7.5,22.2,13.7,4.5,91,89,85,28.76,28.61,1,0,1,0.00
2013-1-2,29.8,21.8,18.7,19.5,16.8,14.3,91,82,60,28.73,28.61,2,0,2,0.00
2013-1-3,29.7,20.5,15.6,17.2,13.5,8.5,85,74,57,28.61,28.47,6,0,6,0.00
2013-1-4,32.9,22.9,16.2,22.1,16.9,11.6,87,78,60,28.55,28.50,0,0,0,0.00
2013-1-5,30.6,24.7,20.1,24.5,21.4,16.9,92,87,78,28.55,28.29,0,0,0,0.00
2013-1-6,37.8,27.2,23.2,28.6,23.1,21.0,93,85,64,28.35,28.20,2,0,2,0.00
2013-1-7,33.1,29.0,24.6,32.4,26.2,22.1,98,90,73,28.20,27.96,4,0,4,0.00
2013-1-8,36.3,30.6,24.8,34.2,29.9,23.9,98,98,91,28.26,27.90,2,0,2,0.00
2013-1-9,38.3,30.3,23.5,36.6,29.3,22.8,98,96,87,27.96,27.76,10,0,10,0.00
2013-1-10,30.9,21.5,8.4,29.7,20.0,6.1,98,94,89,28.17,27.96,2,0,2,0.00
2013-1-11,23.0,11.1,1.6,20.8,8.0,-2.3,91,87,84,28.41,28.17,0,0,0,0.00
2013-1-12,18.1,6.7,-0.6,14.9,2.9,-4.4,88,84,83,28.50,28.38,0,0,0,0.00
2013-1-13,25.3,10.4,-0.9,22.6,6.9,-4.6,91,85,82,28.58,28.47,0,0,0,0.00
2013-1-14,26.6,16.4,10.0,23.4,12.9,6.4,90,86,82,28.61,28.41,3,0,3,0.00
2013-1-15,22.1,11.8,5.5,19.4,8.2,2.0,90,85,83,28.73,28.58,0,0,0,0.00
2013-1-16,25.7,17.8,12.9,21.9,14.5,9.5,90,86,78,28.76,28.67,3,0,3,0.00
2013-1-17,27.9,19.3,10.8,20.1,14.5,6.6,89,82,68,28.70,28.50,3,0,3,0.00
2013-1-18,25.2,17.1,10.9,17.9,12.9,6.6,87,83,69,28.50,28.41,3,0,3,0.00
2013-1-19,27.9,15.6,7.5,22.9,11.6,3.7,89,84,74,28.58,28.50,0,0,0,0.00
2013-1-20,30.9,14.3,4.8,26.7,10.7,1.6,90,85,78,28.64,28.55,0,0,0,0.00
2013-1-21,17.6,7.8,0.3,13.6,4.7,-2.6,87,87,83,28.55,28.50,0,0,0,0.00
2013-1-25,17.6,14.8,13.3,13.9,11.0,9.4,86,84,83,28.50,28.11,0,0,0,0.00
2013-1-26,36.5,25.4,14.7,26.2,20.6,11.1,90,82,60,28.14,28.08,4,0,4,0.00
2013-1-27,35.2,26.7,16.7,25.7,21.3,13.5,90,80,62,28.17,28.11,3,0,3,0.00
2013-1-28,37.0,27.2,19.0,25.6,22.0,15.8,90,81,61,28.11,28.02,1,0,1,0.00
2013-1-29,47.3,32.3,22.3,36.0,26.8,19.9,98,82,45,28.35,28.02,15,1,15,0.00
2013-1-30,56.8,41.7,28.9,28.8,26.5,24.1,90,58,31,28.41,28.23,17,3,17,0.00
2013-1-31,46.9,32.7,25.9,38.2,28.4,23.7,96,85,58,28.41,28.32,4,0,4,0.00
2013-2-1,47.1,30.0,23.2,38.9,26.2,21.0,98,86,58,28.58,28.38,4,0,4,0.00
2013-2-2,43.3,26.1,19.4,38.5,22.9,16.6,97,88,67,28.61,28.41,0,0,0,0.00
2013-2-3,39.6,27.5,19.4,33.8,23.9,16.5,95,87,69,28.41,28.26,2,0,2,0.00
2013-2-4,48.9,34.0,26.6,38.3,29.6,25.4,98,85,54,28.26,28.11,0,0,0,0.00
2013-2-5,48.0,35.5,31.6,38.5,31.5,28.5,97,86,62,28.11,27.93,5,0,5,0.00
2013-2-6,45.3,34.5,27.0,36.8,30.9,26.0,98,87,63,28.17,28.05,3,0,3,0.00
2013-2-7,48.2,34.2,27.9,33.6,27.5,19.9,98,79,36,28.23,28.05,8,0,8,0.00
2013-2-8,44.1,28.7,22.1,30.2,21.0,16.9,90,74,49,28.32,28.26,5,0,5,0.00
2013-2-9,46.2,28.0,21.0,35.5,23.5,18.3,95,84,51,28.38,28.20,3,0,3,0.00
2013-2-10,44.1,26.6,18.5,35.2,22.3,15.6,97,85,55,28.41,28.32,3,0,3,0.00
2013-2-11,43.0,27.7,17.6,34.0,22.6,14.7,95,82,52,28.35,28.32,6,0,6,0.00
2013-2-12,53.1,32.6,25.3,36.1,27.2,23.4,97,84,35,28.38,28.32,15,1,15,0.00
2013-2-13,52.0,39.8,25.2,27.2,21.9,18.3,81,52,29,28.52,28.29,22,2,22,0.03
2013-2-14,49.1,32.3,24.4,38.4,25.5,20.0,90,77,46,28.67,28.52,6,0,6,0.00
2013-2-15,46.9,30.4,23.2,41.1,25.9,20.4,97,84,52,28.67,28.41,4,0,4,0.00
2013-2-16,48.7,32.8,23.4,38.7,26.6,20.9,97,79,42,28.41,28.14,12,1,12,0.05
2013-2-17,33.3,27.1,24.3,26.0,23.2,21.5,90,85,75,28.23,28.17,3,0,3,0.00
2013-2-18,40.1,31.6,21.9,27.3,24.1,18.6,90,75,56,28.20,27.96,4,0,4,0.00
2013-2-19,49.1,29.1,18.5,37.1,20.8,15.3,92,74,38,28.11,27.93,6,0,6,0.00
2013-2-20,47.3,28.2,15.8,32.5,18.9,11.8,89,71,38,28.17,28.08,10,0,10,0.00
2013-2-21,53.1,32.9,22.5,26.4,22.5,17.8,84,68,30,28.14,28.08,10,0,10,0.00
2013-2-22,42.3,33.2,27.1,34.7,29.1,23.3,97,85,70,28.11,27.76,13,0,13,0.12
2013-2-23,50.9,37.0,24.6,43.7,23.7,18.3,97,61,36,28.41,28.14,15,2,15,0.05
2013-2-24,47.3,33.8,24.8,33.3,26.7,20.7,89,76,49,28.41,28.14,4,0,4,0.04
2013-2-25,47.1,35.2,29.8,34.5,26.2,17.0,96,72,40,28.29,28.02,13,1,13,0.04
2013-2-26,54.5,35.6,24.8,29.2,23.6,19.0,88,65,29,28.41,28.29,5,0,5,0.00
2013-2-27,54.9,36.2,26.8,36.2,26.4,21.7,92,70,32,28.38,28.32,7,0,7,0.00
2013-2-28,40.8,35.2,31.3,34.7,31.1,27.6,92,85,78,28.44,28.38,0,0,0,0.25
2013-3-1,59.7,43.8,34.0,45.7,32.5,29.5,98,68,36,28.41,28.35,15,2,15,0.00
2013-3-2,54.5,38.9,30.2,42.6,32.3,18.8,97,79,42,28.38,28.08,7,0,7,0.04
2013-3-3,51.4,33.7,25.9,24.0,18.1,6.3,82,56,20,28.38,28.14,17,2,17,0.00
2013-3-4,52.7,33.3,20.8,24.8,20.1,15.7,82,61,31,28.44,28.23,7,0,7,0.00
2013-3-5,49.3,34.0,25.2,27.1,22.9,17.9,84,66,33,28.23,27.99,6,0,6,0.00
2013-3-6,44.2,35.3,31.6,34.9,30.9,26.8,94,84,67,27.99,27.82,2,0,2,0.12
2013-3-7,54.0,38.1,30.2,42.5,32.4,28.1,97,82,50,28.23,27.96,6,0,6,0.21
2013-3-8,56.7,34.1,24.8,47.5,28.3,22.7,97,81,38,28.35,28.17,7,0,7,0.00
2013-3-9,59.2,33.6,23.4,39.5,24.8,20.9,95,74,33,28.52,28.35,5,0,5,0.00
2013-3-10,64.0,39.7,27.1,35.6,27.7,23.8,88,66,27,28.52,28.38,9,1,9,0.00
2013-3-11,56.8,36.3,22.6,36.8,25.2,19.4,90,68,31,28.50,28.35,6,0,6,0.00
2013-3-12,56.8,42.4,34.0,44.4,35.0,29.7,94,76,42,28.35,28.14,12,1,12,0.04
2013-3-13,65.5,46.0,37.4,46.0,37.5,34.4,93,75,40,28.29,28.17,6,1,6,0.00
2013-3-14,63.7,44.7,36.9,49.2,36.6,24.3,98,78,24,28.29,28.11,12,1,12,0.00
2013-3-15,65.7,44.6,34.5,49.7,33.4,25.9,93,70,26,28.32,28.17,10,1,10,0.00
2013-3-16,54.3,39.7,30.9,41.3,30.2,21.6,97,72,35,28.23,27.90,12,1,12,0.00
2013-3-17,50.2,37.3,28.9,29.2,21.7,14.2,89,56,28,28.20,27.96,20,2,20,0.00
2013-3-18,54.3,36.2,26.2,39.5,22.2,14.1,88,60,30,28.38,28.14,17,1,17,0.08
2013-3-19,49.8,35.6,24.3,28.0,18.9,12.7,82,53,29,28.38,27.99,8,1,8,0.05
2013-3-20,48.7,39.5,32.5,40.1,33.3,19.6,97,79,52,27.96,27.70,15,1,15,0.74
2013-3-21,50.0,34.3,25.7,34.7,23.5,18.0,96,68,33,28.23,27.96,11,1,11,0.08
2013-3-22,40.3,26.0,21.9,27.1,18.4,15.3,82,73,52,28.44,28.23,6,0,6,0.00
2013-3-23,50.7,33.5,24.1,23.5,16.9,11.1,75,52,28,28.50,28.38,9,1,9,0.00
2013-3-24,54.3,34.2,23.0,24.0,18.5,15.8,76,56,26,28.50,28.35,6,1,6,0.00
2013-3-25,57.6,36.4,25.2,27.5,20.9,17.9,78,57,25,28.35,28.17,6,1,6,0.00
2013-3-26,63.0,40.4,25.3,34.1,26.0,21.2,86,61,25,28.20,28.08,6,1,6,0.00
2013-3-27,61.7,44.3,31.6,36.4,30.8,28.1,89,63,29,28.20,28.11,5,0,5,0.00
2013-3-28,62.1,42.4,30.6,40.0,32.8,27.7,95,72,36,28.29,28.17,7,0,7,0.00
2013-3-29,70.7,46.0,31.1,41.2,31.0,25.7,97,63,22,28.38,28.26,12,1,12,0.00
2013-3-30,70.5,46.6,29.5,38.0,31.6,25.2,89,61,23,28.44,28.29,8,1,8,0.00
2013-3-31,74.3,48.4,31.6,43.2,33.9,29.0,95,64,23,28.32,28.11,6,1,6,0.00
2013-4-1,78.4,52.7,34.5,45.5,35.2,31.5,93,58,20,28.17,28.08,8,1,8,0.00
2013-4-2,73.9,51.3,34.0,45.3,33.6,28.4,92,57,21,28.23,28.17,12,1,12,0.00
2013-4-3,75.0,50.9,32.0,43.3,32.6,27.8,93,56,19,28.26,28.14,8,1,8,0.00
2013-4-4,51.3,46.6,42.4,47.1,40.7,32.4,96,81,60,28.17,27.88,3,0,3,0.42
2013-4-5,61.3,48.0,38.7,49.7,42.0,36.2,98,82,46,28.02,27.93,6,0,6,0.12
2013-4-6,59.5,45.8,37.6,46.8,35.3,26.1,98,71,34,28.02,27.90,13,1,13,0.09
2013-4-7,54.1,40.8,33.1,41.0,32.2,24.1,91,74,35,27.96,27.76,17,1,17,0.58
2013-4-8,64.9,43.2,33.1,41.5,34.9,30.6,95,76,33,28.38,27.93,6,0,6,0.00
2013-4-9,64.8,44.9,29.1,42.8,33.4,27.4,97,69,33,28.44,28.32,6,1,6,0.00
2013-4-10,62.1,45.9,33.4,50.2,36.6,26.4,92,73,33,28.32,28.02,21,1,21,0.16
2013-4-11,64.4,41.9,29.5,37.6,27.2,13.2,95,63,16,28.32,28.23,15,1,15,0.00
2013-4-12,58.1,41.5,29.8,31.8,27.5,23.5,84,60,30,28.29,27.73,10,1,10,0.00
2013-4-13,57.4,42.5,29.8,28.6,20.9,16.4,69,43,27,28.05,27.73,20,3,20,0.00
2013-4-14,61.9,38.3,26.6,28.9,23.2,18.7,80,58,21,28.08,28.02,10,1,10,0.00
2013-4-15,51.1,37.2,27.3,37.9,30.7,22.5,91,78,47,28.32,28.08,4,0,4,0.21
2013-4-16,55.4,41.0,31.3,36.0,26.1,17.0,96,61,26,28.52,28.32,8,1,8,0.00
2013-4-17,68.0,43.5,27.7,30.9,24.6,18.9,80,52,21,28.55,28.44,11,1,11,0.00
2013-4-18,67.8,47.5,29.1,40.8,30.9,25.6,90,58,27,28.47,28.26,9,1,9,0.00
2013-4-19,70.3,51.0,37.8,43.4,33.9,29.6,88,56,25,28.26,28.11,14,2,14,0.00
2013-4-20,68.0,51.0,35.1,39.6,28.8,23.3,88,47,23,28.26,28.17,20,3,20,0.00
2013-4-21,67.3,44.0,30.0,40.2,28.9,21.3,90,62,24,28.47,28.23,12,1,12,0.04
2013-4-22,70.0,43.4,28.4,32.4,23.7,13.1,91,55,12,28.61,28.47,7,1,7,0.00
2013-4-23,72.7,44.3,28.2,31.8,25.3,18.8,77,52,14,28.52,28.35,7,1,7,0.00
2013-4-24,80.2,49.9,27.5,36.5,26.3,14.9,89,49,10,28.47,28.14,10,1,10,0.00
2013-4-25,82.4,55.1,34.0,39.4,31.5,26.5,80,47,14,28.23,28.11,13,2,13,0.00
2013-4-26,82.4,55.0,36.7,46.9,32.0,14.1,91,52,9,28.32,28.23,13,1,13,0.00
2013-4-27,69.3,52.3,39.0,38.9,30.9,17.6,82,50,17,28.29,28.17,29,3,29,0.00
2013-4-28,67.5,51.4,36.3,40.1,29.5,22.5,84,47,23,28.23,28.05,16,2,16,0.00
2013-4-29,58.6,44.2,29.1,42.5,25.4,15.6,94,52,25,28.20,27.96,11,2,12,0.00
2013-4-30,65.7,42.0,27.1,32.6,21.2,8.1,74,48,13,28.50,28.20,10,1,10,0.00
2013-5-1,74.3,45.7,25.7,30.3,22.3,15.5,76,46,13,28.70,28.50,7,1,7,0.00
2013-5-2,82.4,54.4,30.4,38.0,28.9,19.8,85,45,12,28.70,28.41,8,1,8,0.00
2013-5-3,87.4,57.3,36.3,41.0,32.2,25.4,77,44,13,28.50,28.32,8,1,8,0.00
2013-5-4,88.0,57.7,35.2,38.2,31.1,17.2,81,44,9,28.47,28.23,10,1,10,0.00
2013-5-5,93.6,60.3,40.5,40.5,30.6,15.9,75,41,6,28.29,28.05,10,1,10,0.00
2013-5-6,97.0,64.4,43.3,45.4,31.7,16.6,72,37,6,28.11,27.93,6,1,6,0.00
2013-5-7,98.1,68.5,50.7,46.0,37.4,25.9,58,36,8,28.08,27.96,9,1,9,0.00
2013-5-8,99.5,68.8,49.1,49.2,38.8,24.7,72,39,8,28.23,28.08,10,1,10,0.00
2013-5-9,101.1,68.1,46.2,44.8,30.0,16.1,60,31,5,28.29,28.17,8,1,8,0.00
2013-5-10,98.8,69.8,46.4,42.6,30.7,16.1,55,29,6,28.32,28.23,12,1,12,0.00
2013-5-11,95.4,71.3,52.9,48.9,38.5,24.7,60,34,9,28.32,28.17,8,1,8,0.00
2013-5-12,78.4,63.6,52.3,53.8,41.2,35.1,74,47,24,28.20,28.14,17,2,17,0.00
2013-5-13,68.5,53.7,39.4,49.3,42.6,36.2,92,69,35,28.26,28.05,11,0,11,0.13
2013-5-14,74.5,50.6,35.8,43.2,33.8,19.6,95,61,13,28.35,28.20,8,1,8,0.00
2013-5-15,76.5,55.9,36.3,42.2,35.5,30.3,86,52,21,28.26,28.08,8,1,8,0.00
2013-5-16,75.6,55.5,42.8,51.1,44.2,37.4,88,68,31,28.14,28.02,8,0,8,0.00
2013-5-17,77.4,55.4,40.3,54.5,43.0,37.9,96,67,33,28.11,28.05,7,1,7,0.04
2013-5-18,74.1,58.0,43.2,45.2,37.9,32.9,76,50,25,28.32,28.11,8,1,8,0.00
2013-5-19,79.9,57.5,40.5,42.2,36.3,31.9,80,51,21,28.44,28.32,9,1,9,0.00
2013-5-20,81.9,58.4,38.1,44.3,37.7,32.6,90,53,20,28.44,28.05,8,1,8,0.00
2013-5-21,55.9,47.0,36.1,50.9,43.2,34.5,95,87,71,28.05,27.85,6,0,6,0.83
2013-5-22,55.0,44.8,36.3,45.5,38.8,32.8,97,81,47,28.14,27.93,8,0,8,0.45
2013-5-23,59.4,46.8,39.6,46.7,40.8,36.8,95,81,46,28.20,28.14,5,0,5,0.21
2013-5-24,58.3,41.1,35.4,46.5,38.0,34.3,98,89,52,28.17,28.11,4,0,4,0.00
2013-5-25,72.3,50.8,35.4,45.3,38.2,32.6,96,67,26,28.17,28.11,8,1,8,0.00
2013-5-26,66.7,53.0,39.7,48.9,43.1,37.0,94,72,44,28.17,28.08,8,0,8,0.00
2013-5-27,61.5,50.6,38.5,50.4,44.7,36.9,96,81,50,28.11,27.96,6,0,6,0.12
2013-5-28,76.6,55.0,42.4,50.8,42.4,33.7,98,68,25,27.99,27.93,10,1,10,0.00
2013-5-29,64.0,50.2,40.1,51.3,43.8,38.0,92,80,46,28.05,27.88,8,0,8,0.13
2013-5-30,73.9,52.6,34.2,49.1,34.3,27.6,98,58,22,28.32,28.05,12,2,12,0.00
2013-5-31,76.8,54.6,37.0,42.8,35.8,29.7,90,55,21,28.41,28.32,9,1,9,0.00
2013-6-1,78.8,56.7,41.9,47.1,40.2,34.9,88,59,25,28.38,28.17,13,1,13,0.00
2013-6-2,75.7,58.0,41.2,46.9,38.5,32.7,87,54,24,28.20,28.08,10,1,10,0.00
2013-6-3,84.2,61.8,43.7,44.3,38.4,31.9,81,48,20,28.26,28.14,8,1,8,0.00
2013-6-4,89.8,62.8,43.3,48.4,41.7,35.9,87,53,18,28.32,28.17,10,1,10,0.00
2013-6-5,91.2,68.2,48.9,53.5,43.7,36.2,85,48,18,28.23,28.14,11,1,11,0.00
2013-6-6,97.9,69.7,45.3,48.4,39.2,24.8,78,39,8,28.23,28.08,6,1,8,0.00
2013-6-7,82.4,67.5,48.4,50.2,39.0,24.6,63,37,22,28.17,28.08,17,2,18,0.00
2013-6-8,89.4,62.4,38.8,43.2,34.5,23.0,80,43,11,28.26,28.11,14,2,14,0.00
2013-6-9,84.0,60.1,39.4,44.6,32.8,18.8,86,44,11,28.20,28.05,13,1,13,0.00
2013-6-10,86.4,60.8,41.4,36.7,31.4,22.0,66,39,12,28.11,27.93,6,1,6,0.00
2013-6-11,78.6,58.6,39.7,45.4,35.1,27.9,83,46,22,28.20,27.96,20,1,20,0.00
2013-6-12,74.5,56.7,37.9,40.5,32.1,28.5,78,43,22,28.26,28.14,8,1,8,0.00
2013-6-13,81.0,55.5,38.7,48.6,36.9,30.8,78,53,21,28.29,28.20,6,0,6,0.00
2013-6-14,82.8,58.2,37.2,45.1,37.8,33.1,90,53,21,28.32,28.17,7,1,7,0.00
2013-6-15,88.7,62.4,39.4,46.0,40.3,35.2,89,51,18,28.23,28.11,8,1,8,0.00
2013-6-16,90.9,68.5,47.7,55.9,43.9,34.6,79,47,15,28.23,28.11,6,1,6,0.00
2013-6-17,88.5,67.5,52.2,55.3,45.3,35.9,87,51,18,28.20,28.02,7,1,7,0.00
2013-6-18,75.7,60.5,50.2,52.1,45.9,38.8,82,62,30,28.11,28.05,8,1,8,0.00
2013-6-19,72.7,60.3,52.9,49.5,43.1,35.1,83,56,33,28.08,27.96,12,1,12,0.00
2013-6-20,65.8,58.1,50.5,45.8,38.1,33.9,80,49,34,28.20,27.99,17,3,17,0.00
2013-6-21,69.1,57.4,46.2,52.4,45.8,39.5,93,68,35,28.29,28.20,4,0,4,0.00
2013-6-22,88.3,63.5,44.2,50.2,46.0,39.4,93,59,20,28.26,28.08,6,1,6,0.00
2013-6-23,80.1,63.3,47.1,54.7,48.1,42.5,91,62,30,28.11,27.85,5,0,5,0.00
2013-6-24,71.1,60.3,49.1,59.7,55.1,47.3,94,84,53,27.90,27.82,2,0,2,0.17
2013-6-25,74.8,57.2,45.3,59.0,50.7,44.2,97,81,39,28.05,27.90,5,0,5,0.04
2013-6-26,73.8,60.0,47.8,57.1,50.0,44.9,97,72,41,28.26,28.05,5,0,5,0.00
2013-6-27,72.5,61.1,52.3,58.5,53.1,46.8,94,76,49,28.41,28.26,9,0,9,0.04
2013-6-28,89.1,69.2,55.6,62.2,56.6,52.0,95,69,31,28.41,28.26,6,0,6,0.00
2013-6-29,89.8,69.6,57.9,68.1,60.3,55.9,95,76,38,28.29,28.20,9,0,9,0.16
2013-6-30,100.8,71.9,52.9,65.4,55.9,46.3,98,65,18,28.26,28.14,6,0,6,0.00
2013-7-1,99.9,72.4,56.8,67.3,56.8,50.6,93,63,21,28.26,28.11,4,0,4,0.00
2013-7-2,106.7,78.2,58.3,66.5,48.7,25.3,90,48,6,28.20,28.11,10,1,10,0.00
2013-7-3,69.6,58.0,51.4,50.0,46.2,33.9,87,69,27,28.20,28.11,6,0,6,0.00
2013-7-4,93.6,73.6,51.8,46.0,33.8,18.2,55,28,8,28.11,28.02,13,2,13,0.00
2013-7-5,93.2,77.1,54.0,46.3,43.1,38.2,73,34,17,28.08,27.96,7,2,7,0.00
2013-7-6,92.1,66.8,47.3,51.4,43.9,35.6,90,51,17,28.11,27.99,7,1,7,0.00
2013-7-7,93.2,68.4,49.8,58.0,48.2,40.0,86,57,17,28.11,27.99,10,1,10,0.00
2013-7-8,95.2,68.6,49.3,56.5,49.0,41.1,94,57,18,28.23,28.08,6,1,6,0.00
2013-7-9,99.9,71.8,51.1,55.6,48.4,38.2,85,51,13,28.32,28.14,6,1,6,0.00
2013-7-10,96.8,72.6,53.8,58.0,43.0,26.5,84,43,9,28.17,27.99,10,1,10,0.00
2013-7-11,89.8,69.1,54.1,42.6,33.3,17.0,50,30,9,28.11,28.02,11,2,11,0.00
2013-7-12,76.1,62.3,49.1,40.4,33.5,27.8,55,36,18,28.20,28.08,6,0,8,0.04
2013-7-13,92.5,63.8,44.2,42.7,34.9,16.6,73,41,8,28.29,28.17,6,0,6,0.00
2013-7-14,97.5,67.3,46.2,47.5,33.4,15.1,73,37,6,28.29,28.11,9,0,9,0.00
2013-7-15,94.3,65.4,45.1,44.8,38.3,30.6,72,42,14,28.23,28.11,6,0,6,0.00
2013-7-16,98.6,68.9,44.4,53.5,42.6,25.0,86,47,9,28.23,28.05,6,0,6,0.00
2013-7-17,99.9,73.0,58.5,64.1,46.4,25.0,88,46,9,28.26,28.05,10,0,10,0.00
2013-7-18,102.2,70.6,48.0,52.0,41.9,25.6,74,42,7,28.35,28.17,6,0,6,0.00
2013-7-19,106.7,73.3,49.5,49.4,34.7,13.5,65,33,4,28.29,28.11,6,0,6,0.00
2013-7-20,104.5,74.0,47.8,48.6,32.0,13.5,53,27,4,28.17,27.99,10,0,10,0.00
2013-7-21,106.0,74.8,51.3,50.8,38.3,25.4,62,32,7,28.05,27.93,7,0,7,0.00
2013-7-22,104.5,73.2,50.2,50.5,39.0,25.6,64,36,7,28.14,27.99,7,0,7,0.00
2013-7-23,107.2,74.5,50.4,53.6,38.0,13.6,67,34,4,28.20,28.05,6,0,6,0.00
2013-7-24,105.8,75.4,51.3,49.5,34.4,13.5,52,30,4,28.17,28.08,6,0,6,0.00
2013-7-25,107.4,73.6,47.1,51.7,32.8,13.5,69,32,4,28.20,28.11,8,0,8,0.00
2013-7-26,106.3,73.5,46.0,48.8,29.6,13.5,57,26,4,28.26,28.14,12,0,12,0.00
2013-7-27,99.9,71.7,53.6,44.9,35.5,24.9,52,30,8,28.23,28.05,10,1,10,0.00
2013-7-28,98.8,70.1,50.7,45.7,36.9,25.0,63,35,8,28.08,27.99,6,0,6,0.00
2013-7-29,97.7,68.9,46.9,53.8,42.4,24.7,84,46,8,28.14,28.02,7,1,7,0.00
2013-7-30,98.8,70.6,53.1,54.5,43.0,26.3,72,43,9,28.29,28.14,6,0,6,0.00
2013-7-31,95.5,70.9,53.1,54.2,45.7,37.3,66,44,14,28.29,28.14,12,1,12,0.00
2013-8-1,92.7,67.1,56.5,56.2,50.0,38.8,86,59,18,28.20,28.05,18,1,18,0.00
2013-8-2,84.9,65.9,57.6,60.6,55.0,47.3,95,71,31,28.26,28.14,5,0,5,0.21
2013-8-3,91.0,68.1,56.8,58.0,54.4,49.4,93,66,27,28.29,28.17,7,0,7,0.00
2013-8-4,95.2,68.6,51.8,66.2,54.7,44.7,96,67,20,28.26,28.14,8,0,8,0.00
2013-8-5,97.2,70.7,52.0,60.3,51.7,43.0,95,58,17,28.20,28.05,6,0,6,0.00
2013-8-6,106.5,72.7,53.4,58.2,41.1,13.5,81,43,4,28.14,28.05,4,0,4,0.00
2013-8-7,102.7,72.7,50.7,53.5,41.6,28.5,69,40,9,28.14,28.05,7,0,7,0.00
2013-8-8,103.8,74.7,53.8,54.0,44.1,25.4,71,41,7,28.14,28.02,6,0,6,0.00
2013-8-9,105.3,75.8,56.5,58.3,49.3,28.3,75,46,7,28.11,27.99,4,0,4,0.00
2013-8-10,97.2,74.4,62.2,63.5,58.1,48.0,95,62,22,28.20,28.02,13,0,13,0.38
2013-8-11,92.8,71.0,57.0,61.2,55.8,47.7,96,64,23,28.26,28.08,8,1,8,0.41
2013-8-12,96.8,68.3,53.4,60.6,52.7,42.2,95,65,17,28.20,28.08,6,0,6,0.00
2013-8-13,99.3,69.4,53.8,58.5,50.1,41.0,90,58,16,28.23,28.11,6,0,6,0.00
2013-8-14,84.7,68.6,52.5,62.8,53.9,47.3,86,62,33,28.17,28.05,3,0,3,0.00
2013-8-15,86.0,71.8,62.4,60.9,54.4,50.5,74,55,35,28.17,28.08,9,1,9,0.00
2013-8-16,94.3,67.4,50.2,55.2,49.1,41.5,84,57,18,28.20,28.11,6,0,6,0.00
2013-8-17,83.1,66.2,52.9,56.0,47.9,39.0,83,56,23,28.20,28.14,11,1,11,0.00
2013-8-18,93.4,66.6,47.3,53.8,44.0,31.3,85,52,12,28.26,28.17,15,1,15,0.00
2013-8-19,88.7,63.9,47.8,54.0,45.2,39.2,89,57,20,28.23,28.17,13,1,13,0.00
2013-8-20,95.4,65.6,46.2,48.7,40.2,35.3,77,45,14,28.26,28.14,8,1,8,0.00
2013-8-21,95.7,65.2,43.7,52.3,41.5,35.8,79,49,14,28.29,28.14,7,0,7,0.00
2013-8-22,97.9,70.2,49.6,55.6,46.8,32.7,76,49,11,28.20,27.99,4,0,4,0.00
2013-8-23,88.3,68.1,57.4,62.8,51.2,41.7,88,59,23,28.02,27.96,6,0,6,0.00
2013-8-24,90.1,65.9,47.7,53.1,43.3,34.2,83,49,18,28.05,27.96,13,1,13,0.00
2013-8-25,80.8,64.2,51.6,56.4,46.7,37.6,89,56,23,28.11,27.99,6,0,6,0.00
2013-8-26,84.7,64.1,50.0,58.3,50.8,45.5,95,66,29,28.14,28.05,10,1,10,0.00
2013-8-27,84.2,66.3,50.9,57.4,49.4,46.2,88,59,29,28.17,27.99,5,0,5,0.00
2013-8-28,88.7,69.3,56.8,56.5,51.3,46.1,80,56,25,28.11,27.99,12,1,12,0.00
2013-8-29,88.2,64.5,57.0,63.4,55.1,46.0,95,74,29,28.20,28.05,10,0,10,0.25
2013-8-30,85.8,62.5,52.0,61.7,49.3,35.3,97,69,20,28.32,28.20,11,1,11,0.00
2013-8-31,89.6,62.3,44.8,55.8,46.8,41.4,95,63,21,28.32,28.11,6,0,6,0.00
2013-9-1,96.1,66.7,50.2,58.8,47.5,38.6,90,58,17,28.14,27.93,6,0,6,0.00
2013-9-2,97.2,68.1,51.3,57.3,48.1,40.3,84,56,16,28.11,27.96,6,0,6,0.00
2013-9-3,90.9,68.7,55.0,58.8,52.6,48.4,86,61,28,28.20,28.05,11,1,11,0.00
2013-9-4,92.8,70.6,56.8,61.9,53.4,49.3,92,59,26,28.20,28.11,10,1,10,0.00
2013-9-5,92.5,70.3,59.4,65.1,57.4,50.4,95,68,28,28.20,28.02,6,0,6,1.12
2013-9-6,72.1,59.9,53.8,63.1,56.8,52.4,98,90,57,28.32,28.11,8,0,8,0.12
2013-9-7,65.5,57.3,50.5,60.8,55.5,49.3,98,94,80,28.32,28.23,3,0,3,0.38
2013-9-8,86.5,61.1,46.8,61.4,53.5,46.2,98,80,36,28.29,28.11,6,0,6,0.00
2013-9-9,86.5,63.2,50.9,58.9,51.8,41.5,96,73,26,28.20,28.08,6,0,6,0.00
2013-9-10,88.7,62.6,47.7,61.8,51.5,46.6,98,73,29,28.23,28.14,6,0,6,0.00
2013-9-11,91.8,64.8,49.6,62.3,52.6,48.3,98,71,25,28.29,28.20,5,0,5,0.00
2013-9-12,93.6,67.6,52.9,62.2,53.2,49.2,92,65,27,28.23,28.05,4,0,4,0.00
2013-9-13,94.8,69.3,54.0,63.1,54.2,48.9,91,64,25,28.08,27.93,6,0,6,0.00
2013-9-14,92.3,69.3,54.1,60.2,54.2,50.0,90,63,27,28.08,27.99,6,0,6,0.00
2013-9-15,92.3,68.9,56.5,61.5,53.7,42.4,93,64,22,28.02,27.85,12,0,12,0.29
2013-9-16,79.2,61.3,52.9,63.0,50.3,41.1,97,72,29,28.05,27.93,10,1,10,0.00
2013-9-17,77.0,58.6,47.8,53.3,46.0,36.4,95,67,33,28.02,27.90,8,1,8,0.00
2013-9-18,77.9,54.4,41.2,47.7,38.8,32.3,91,61,22,28.23,27.99,14,1,14,0.00
2013-9-19,75.2,52.0,37.4,46.7,39.1,34.3,94,66,28,28.29,28.11,7,0,7,0.00
2013-9-20,75.4,54.8,37.9,47.8,41.9,35.5,95,66,28,28.11,27.79,9,0,9,0.00
2013-9-21,76.5,56.6,42.8,52.2,41.8,31.3,92,63,23,27.88,27.79,9,1,9,0.00
2013-9-22,65.5,49.2,41.5,49.9,43.0,37.0,95,81,38,27.90,27.82,6,0,6,0.16
2013-9-23,59.4,50.3,43.2,53.6,47.2,41.7,97,89,73,28.11,27.90,3,0,3,0.00
2013-9-24,68.7,48.7,39.9,49.0,41.6,32.6,98,79,31,28.11,27.93,9,0,9,0.00
2013-9-25,72.3,50.0,39.7,47.0,39.3,29.6,96,72,22,28.11,27.96,6,0,6,0.05
2013-9-26,62.4,48.1,38.8,43.3,39.4,36.0,90,74,39,28.23,28.11,4,0,4,0.00
2013-9-27,60.6,46.7,34.2,46.0,40.3,32.3,96,81,41,28.23,28.05,5,0,5,0.00
2013-9-28,53.6,48.2,43.3,50.6,46.5,42.0,97,94,83,28.05,27.61,4,0,4,0.99
2013-9-29,57.9,48.4,39.7,55.2,45.7,39.2,98,91,70,27.76,27.55,4,0,4,0.37
2013-9-30,56.5,43.3,35.2,46.1,40.9,34.5,98,92,64,28.05,27.58,8,1,8,0.71
2013-10-1,58.5,41.5,32.9,51.2,36.9,32.4,98,86,45,28.26,28.05,5,0,5,0.00
2013-10-2,50.7,42.9,34.3,44.3,39.6,33.0,98,89,67,28.29,28.23,4,0,4,0.04
2013-10-3,62.6,43.1,32.5,53.6,38.2,31.8,98,85,44,28.58,28.29,6,0,6,0.00
2013-10-4,63.5,42.6,31.6,48.8,37.0,30.9,98,84,38,28.64,28.52,5,0,5,0.00
2013-10-5,65.7,45.9,33.6,47.6,39.8,32.9,98,82,40,28.55,28.41,4,0,4,0.00
2013-10-6,64.0,44.4,33.1,54.8,39.5,32.3,98,85,45,28.44,28.08,4,0,4,0.00
2013-10-7,67.3,47.2,37.6,52.7,38.4,31.9,98,75,33,28.08,28.02,10,1,10,0.00
2013-10-8,59.0,43.5,34.7,46.7,36.9,29.1,97,80,40,28.23,28.02,6,0,6,0.00
2013-10-9,60.6,42.8,28.4,44.2,35.8,26.8,98,79,44,28.29,28.05,4,0,4,0.00
2013-10-10,67.1,45.7,34.2,48.1,35.3,29.3,96,71,28,28.20,28.02,10,0,10,0.00
2013-10-11,61.7,41.6,28.4,44.8,32.9,26.0,97,74,35,28.32,28.20,6,0,6,0.00
2013-10-12,57.2,43.0,36.1,41.5,37.7,33.7,95,83,50,28.35,28.20,4,0,4,0.00
2013-10-13,57.2,41.5,32.5,48.3,37.5,31.3,98,87,53,28.50,28.35,3,0,3,0.00
2013-10-14,59.9,38.5,28.6,50.3,33.5,27.3,98,84,39,28.58,28.50,6,0,6,0.00
2013-10-15,62.2,42.3,29.3,49.8,36.2,28.3,98,82,45,28.58,28.32,4,0,4,0.00
2013-10-16,63.0,44.0,35.1,50.5,38.8,33.5,98,84,47,28.38,28.29,5,0,5,0.00
2013-10-17,60.6,40.5,30.7,52.0,36.3,29.7,98,87,44,28.44,28.38,6,0,6,0.00
2013-10-18,58.8,40.5,31.1,51.3,36.9,30.4,98,88,54,28.47,28.32,3,0,3,0.00
2013-10-19,59.0,40.5,29.3,50.4,36.9,28.3,98,88,58,28.35,28.26,3,0,3,0.00
2013-10-20,61.3,42.5,31.5,53.5,38.3,30.5,98,87,53,28.35,28.26,3,0,3,0.00
2013-10-25,40.8,37.5,34.7,39.0,36.3,33.9,97,95,93,28.44,28.41,0,0,0,0.00
2013-10-26,54.3,38.4,29.5,47.7,36.3,29.0,98,93,70,28.47,28.20,3,0,3,0.00
2013-10-27,56.3,44.0,32.4,50.1,38.0,31.4,98,82,39,28.20,27.99,11,1,11,0.00
2013-10-28,57.2,43.7,27.9,38.1,26.2,21.0,84,52,28,28.17,28.08,13,2,13,0.00
2013-10-29,46.9,31.5,24.3,37.3,25.9,21.5,94,81,52,28.20,28.11,3,0,3,0.00
2013-10-30,51.3,33.8,24.8,39.9,28.2,22.5,94,82,48,28.23,28.17,3,0,3,0.00
2013-10-31,60.4,39.8,30.0,49.0,33.4,28.4,98,81,35,28.35,28.14,10,1,10,0.00
2013-11-1,59.7,40.6,27.9,47.8,35.0,25.8,98,82,55,28.38,28.11,2,0,2,0.00
2013-11-2,45.9,41.9,36.3,44.8,40.3,35.5,98,94,84,28.11,27.73,3,0,3,0.45
2013-11-3,46.8,34.7,26.4,43.8,31.8,23.5,98,90,46,28.20,27.93,9,0,9,0.00
2013-11-4,40.3,29.5,23.9,33.4,25.4,21.7,94,85,62,28.32,28.20,3,0,3,0.00
2013-11-5,40.6,34.8,29.1,36.0,32.5,26.6,97,91,80,28.38,28.23,3,0,3,0.05
2013-11-6,42.6,36.2,29.8,36.7,32.8,28.6,98,88,69,28.50,28.35,4,0,4,0.08
2013-11-7,39.2,34.7,32.9,37.0,33.5,31.4,98,95,90,28.41,27.93,6,0,6,0.16
2013-11-8,42.1,33.6,28.0,41.4,33.0,27.5,98,97,90,28.32,28.05,4,0,4,0.13
2013-11-9,39.0,32.5,25.7,38.5,31.9,25.2,98,98,95,28.38,28.29,0,0,0,0.25
2013-11-10,41.2,37.6,34.0,40.7,37.1,33.5,98,98,98,28.41,28.29,1,0,1,0.08
2013-11-11,47.8,40.7,36.1,45.3,39.7,35.6,98,96,86,28.52,28.41,4,0,4,0.04
2013-11-12,50.2,43.8,39.2,48.5,43.0,38.7,98,97,92,28.50,28.38,2,0,2,0.04
2013-11-13,47.5,39.9,33.3,46.8,39.3,32.8,98,98,92,28.50,28.38,3,0,3,0.00
2013-11-14,44.2,35.6,28.6,43.5,34.8,28.1,98,97,89,28.38,28.08,3,0,3,0.00
2013-11-15,49.3,38.6,27.7,35.8,29.8,22.6,98,75,37,28.11,27.43,14,2,14,0.13
2013-11-16,41.0,33.3,29.3,38.6,30.7,23.6,98,90,52,27.85,27.43,12,0,12,0.04
2013-11-17,37.0,33.5,28.0,36.0,32.7,27.0,98,97,94,28.02,27.85,2,0,3,0.08
2013-11-18,47.7,40.9,34.2,47.1,40.4,33.7,98,98,97,27.99,27.76,6,0,6,0.29
2013-11-19,50.9,38.4,25.7,42.3,27.9,17.9,98,71,32,28.08,27.70,24,2,24,0.17
2013-11-20,31.3,23.7,18.9,24.0,18.7,14.6,88,81,61,28.61,28.08,4,0,4,0.00
2013-11-21,27.7,19.3,13.6,21.0,14.1,9.9,89,80,63,28.79,28.61,3,0,3,0.00
2013-11-22,31.5,20.9,14.2,25.1,16.1,10.2,90,82,69,28.88,28.76,3,0,3,0.00
2013-11-23,31.1,21.0,13.6,25.5,17.0,10.0,91,84,78,28.76,28.50,2,0,2,0.00
2013-11-24,36.9,26.0,19.2,29.2,21.7,16.3,92,84,65,28.52,28.44,3,0,3,0.00
2013-11-25,37.2,27.7,20.3,31.9,24.1,17.8,94,86,73,28.58,28.52,2,0,2,0.00
2013-11-26,34.3,25.7,20.1,31.7,23.2,17.4,94,90,83,28.52,28.35,0,0,0,0.00
2013-11-27,36.9,27.1,21.9,34.2,25.0,19.8,97,92,84,28.38,28.29,2,0,2,0.00
2013-11-28,33.1,23.6,18.1,32.6,22.0,15.7,98,93,90,28.38,28.29,2,0,2,0.00
2013-11-29,32.9,27.9,20.3,31.6,26.5,18.4,96,94,90,28.44,28.38,2,0,2,0.00
2013-11-30,35.2,31.7,29.3,31.2,29.5,28.2,97,92,81,28.47,28.29,3,0,3,0.00
2013-12-1,34.3,33.1,32.2,33.8,32.5,31.2,98,98,96,28.29,27.79,4,0,4,0.29
2013-12-2,39.0,32.3,27.9,33.8,25.5,14.2,98,79,38,28.17,27.82,15,1,15,0.00
2013-12-3,27.9,21.1,11.8,20.3,15.3,7.9,85,78,64,28.44,28.17,4,0,4,0.00
2013-12-4,19.9,14.7,7.2,15.9,10.7,3.3,85,84,81,28.50,28.41,2,0,2,0.00
2013-12-5,23.0,13.8,7.7,14.4,5.0,-2.6,83,68,52,28.44,28.38,5,0,5,0.00
2013-12-6,23.0,13.5,5.4,13.2,3.6,-2.8,80,64,54,28.44,28.35,7,0,7,0.00
2013-12-7,10.2,2.8,-2.0,2.1,-5.0,-9.7,69,69,69,28.47,28.41,3,0,3,0.00
2013-12-8,17.8,7.9,-0.2,7.9,-0.8,-7.9,76,67,56,28.61,28.47,4,0,4,0.00
2013-12-9,18.9,8.6,2.5,12.4,1.2,-6.3,78,71,66,28.58,28.47,3,0,3,0.00
2013-12-10,21.2,10.5,6.1,15.5,5.1,-0.0,81,78,72,28.58,28.47,3,0,3,0.00
2013-12-11,31.1,16.7,6.6,21.8,10.9,1.9,85,78,59,28.58,28.47,2,0,2,0.00
2013-12-12,31.5,21.4,13.6,23.2,16.5,9.6,86,81,67,28.47,28.26,2,0,2,0.00
2013-12-13,32.5,21.4,14.4,29.4,18.2,10.7,91,87,80,28.55,28.29,2,0,2,0.00
2013-12-14,33.8,25.1,20.7,29.2,22.3,17.9,93,89,79,28.55,28.38,2,0,2,0.00
2013-12-15,54.9,38.8,23.5,40.5,25.4,21.6,98,64,35,28.44,28.29,18,2,18,0.08
2013-12-16,38.3,30.0,25.0,31.1,25.6,22.5,92,84,62,28.52,28.38,3,0,3,0.00
2013-12-17,30.2,26.6,22.1,28.4,24.7,19.6,96,93,90,28.44,28.08,4,0,4,0.00
2013-12-18,41.7,27.4,22.1,31.0,21.0,12.5,98,79,32,28.26,28.05,8,1,11,0.00
2013-12-19,30.7,22.4,15.4,16.3,11.8,5.3,84,64,43,28.44,28.20,7,0,7,0.00
2013-12-20,29.7,19.9,13.3,18.3,13.7,8.6,85,77,56,28.20,27.82,3,0,3,0.00
2013-12-21,23.9,15.8,9.7,20.3,12.2,5.8,88,85,83,28.29,27.99,2,0,2,0.00
2013-12-22,28.8,19.5,11.8,24.8,16.4,8.5,91,87,83,28.41,28.29,2,0,2,0.00
2013-12-23,34.2,27.7,20.3,33.0,26.0,17.6,98,93,86,28.52,28.14,4,0,4,0.12
2013-12-24,30.9,23.8,17.8,30.4,22.6,15.6,98,95,91,28.67,28.52,0,0,0,0.00
2013-12-25,30.2,22.7,14.4,29.2,21.1,11.7,96,93,89,28.67,28.55,0,0,0,0.00
2013-12-26,31.8,27.1,22.8,30.5,26.0,21.4,98,96,93,28.55,28.44,0,0,0,0.00
2013-12-27,31.3,26.3,19.9,29.6,25.0,18.0,97,95,91,28.44,28.20,0,0,0,0.00
2013-12-28,31.1,22.6,17.4,30.6,21.3,15.5,98,95,92,28.58,28.41,0,0,0,0.00
2013-12-29,29.5,25.1,21.0,27.8,23.9,19.6,97,95,93,28.55,28.38,0,0,0,0.00
2013-12-30,32.5,28.2,25.5,30.4,27.0,24.5,97,95,89,28.47,28.26,0,0,0,0.00
2013-12-31,33.3,25.8,21.2,32.8,25.1,20.5,98,97,96,28.47,28.26,0,0,0,0.00
2014-1-1,30.7,25.0,19.8,30.0,24.1,18.3,98,96,93,28.55,28.47,0,0,0,0.00
2014-1-2,33.6,30.8,26.8,33.1,30.3,26.3,98,98,97,28.47,27.96,0,0,0,0.05